This is the latest recevied weather packets stored in our database for station/object DL2MWB-13. If no packets are shown the sender has not sent any weather packets the latest 10 day(s).
| Time | Temp. | Humidity | Pressure | Rain* | Wind** | Luminosity | Snow |
|---|---|---|---|---|---|---|---|
| 1777364651 | 14.44° C | 44% | 1022 hPa | - | - | - | - |
| 1777364048 | 13.89° C | 44% | 1022 hPa | - | - | - | - |
| 1777363444 | 13.89° C | 43% | 1022 hPa | - | - | - | - |
| 1777362841 | 13.33° C | 45% | 1022 hPa | - | - | - | - |
| 1777362237 | 12.78° C | 45% | 1022 hPa | - | - | - | - |
| 1777361634 | 12.78° C | 46% | 1022 hPa | - | - | - | - |
| 1777361030 | 12.22° C | 47% | 1022 hPa | - | - | - | - |
| 1777360427 | 12.22° C | 47% | 1022 hPa | - | - | - | - |
| 1777359824 | 12.22° C | 47% | 1022 hPa | - | - | - | - |
| 1777359220 | 12.22° C | 47% | 1022 hPa | - | - | - | - |
| 1777358616 | 12.22° C | 46% | 1022 hPa | - | - | - | - |
| 1777358013 | 12.22° C | 47% | 1022 hPa | - | - | - | - |
| 1777357409 | 11.67° C | 47% | 1022 hPa | - | - | - | - |
| 1777356806 | 11.67° C | 49% | 1022 hPa | - | - | - | - |
| 1777356202 | 11.11° C | 52% | 1022 hPa | - | - | - | - |
| 1777355599 | 11.11° C | 52% | 1022 hPa | - | - | - | - |
| 1777354995 | 10.56° C | 51% | 1022 hPa | - | - | - | - |
| 1777354392 | 10.56° C | 52% | 1022 hPa | - | - | - | - |
| 1777353788 | 11.11° C | 49% | 1022 hPa | - | - | - | - |
| 1777353185 | 12.22° C | 46% | 1022 hPa | - | - | - | - |
| 1777352581 | 12.22° C | 46% | 1022 hPa | - | - | - | - |
| 1777351978 | 12.22° C | 46% | 1022 hPa | - | - | - | - |
| 1777351374 | 12.22° C | 46% | 1021 hPa | - | - | - | - |
| 1777350771 | 12.22° C | 46% | 1021 hPa | - | - | - | - |
| 1777350167 | 12.22° C | 46% | 1021 hPa | - | - | - | - |
* Rain since midnight (hover to see other rain measurements)
** Current wind speed in m/s (hover to see current wind gust speed)